createdAt,value
2022-11-24T00:01:32.613Z,100372.25
2022-11-24T00:04:06.743Z,100373.97
2022-11-24T00:06:38.948Z,100375.72
2022-11-24T00:09:11.517Z,100378.31
2022-11-24T00:11:43.688Z,100379.16
2022-11-24T00:14:15.853Z,100384.31
2022-11-24T00:16:47.978Z,100389.50
2022-11-24T00:19:20.147Z,100389.50
2022-11-24T00:21:52.175Z,100388.63
2022-11-24T00:24:24.312Z,100391.22
2022-11-24T00:26:56.432Z,100388.63
2022-11-24T00:29:28.580Z,100394.69
2022-11-24T00:32:02.697Z,100395.53
2022-11-24T00:34:35.281Z,100404.16
2022-11-24T00:37:07.720Z,100405.88
2022-11-24T00:39:39.798Z,100402.41
2022-11-24T00:42:11.971Z,100402.44
2022-11-24T00:44:44.114Z,100404.16
2022-11-24T00:47:16.333Z,100404.13
2022-11-24T00:49:48.572Z,100415.41
2022-11-24T00:52:20.686Z,100412.78
2022-11-24T00:54:53.077Z,100408.47
2022-11-24T00:57:25.311Z,100411.94
2022-11-24T00:59:57.367Z,100414.50
2022-11-24T01:02:29.478Z,100417.09
2022-11-24T01:05:04.466Z,100421.41
2022-11-24T01:07:36.593Z,100419.69
2022-11-24T01:10:09.370Z,100417.94
2022-11-24T01:12:41.578Z,100423.97
2022-11-24T01:15:13.855Z,100420.47
2022-11-24T01:17:46.285Z,100421.38
2022-11-24T01:20:18.641Z,100427.47
2022-11-24T01:22:51.065Z,100424.00
2022-11-24T01:25:23.459Z,100423.16
2022-11-24T01:27:55.712Z,100421.44
2022-11-24T01:30:27.780Z,100434.41
2022-11-24T01:32:59.914Z,100426.63
2022-11-24T01:35:31.939Z,100427.50
2022-11-24T01:38:03.982Z,100426.66
2022-11-24T01:40:36.034Z,100432.72
2022-11-24T01:43:18.543Z,100431.84
2022-11-24T01:45:51.146Z,100430.13
2022-11-24T01:48:38.376Z,100430.97
2022-11-24T01:51:20.938Z,100428.41
2022-11-24T01:54:03.183Z,100430.16
2022-11-24T01:56:37.399Z,100423.22
2022-11-24T01:59:12.699Z,100439.66
2022-11-24T02:01:45.355Z,100433.63
2022-11-24T02:04:24.176Z,100437.06
2022-11-24T02:07:00.202Z,100434.50
2022-11-24T02:09:52.457Z,100444.00
2022-11-24T02:12:26.984Z,100443.97
2022-11-24T02:14:59.683Z,100444.84
2022-11-24T02:17:31.814Z,100447.50
2022-11-24T02:20:08.400Z,100458.78
2022-11-24T02:23:07.420Z,100461.34
2022-11-24T02:26:03.838Z,100467.44
2022-11-24T02:28:36.514Z,100470.91
2022-11-24T02:31:09.374Z,100470.97
2022-11-24T02:33:41.581Z,100464.91
2022-11-24T02:36:13.717Z,100470.13
2022-11-24T02:38:45.885Z,100470.03
2022-11-24T02:41:22.153Z,100476.97
2022-11-24T02:44:01.506Z,100482.16
2022-11-24T02:46:33.616Z,100489.94
2022-11-24T02:49:05.952Z,100489.09
2022-11-24T02:51:38.127Z,100496.94
2022-11-24T02:54:10.287Z,100499.56
2022-11-24T02:56:42.463Z,100496.09
2022-11-24T02:59:14.624Z,100509.88
2022-11-24T03:01:46.815Z,100508.16
2022-11-24T03:04:19.011Z,100511.59
2022-11-24T03:06:51.252Z,100511.56
2022-11-24T03:09:23.349Z,100510.72
2022-11-24T03:11:55.470Z,100519.34
2022-11-24T03:14:27.651Z,100515.88
2022-11-24T03:16:59.857Z,100519.34
2022-11-24T03:19:31.961Z,100521.94
2022-11-24T03:22:04.163Z,100515.00
2022-11-24T03:24:36.448Z,100520.16
2022-11-24T03:27:08.727Z,100532.28
2022-11-24T03:29:40.937Z,100527.94
2022-11-24T03:32:13.062Z,100523.56
2022-11-24T03:34:45.281Z,100528.78
2022-11-24T03:37:17.413Z,100526.16
2022-11-24T03:39:49.828Z,100536.56
2022-11-24T03:42:21.980Z,100530.53
2022-11-24T03:44:54.208Z,100535.72
2022-11-24T03:47:26.287Z,100532.22
2022-11-24T03:49:58.392Z,100536.53
2022-11-24T03:52:30.564Z,100545.19
2022-11-24T03:55:02.674Z,100552.09
2022-11-24T03:57:34.871Z,100546.03
2022-11-24T04:00:08.208Z,100558.16
2022-11-24T04:02:40.316Z,100559.00
2022-11-24T04:05:12.421Z,100559.00
2022-11-24T04:07:44.609Z,100558.13
2022-11-24T04:10:16.865Z,100558.13
2022-11-24T04:12:49.027Z,100566.78
2022-11-24T04:15:21.990Z,100570.22
2022-11-24T04:17:55.737Z,100577.16
2022-11-24T04:20:28.043Z,100577.16
2022-11-24T04:23:00.228Z,100580.59
2022-11-24T04:25:32.428Z,100588.38
2022-11-24T04:28:04.870Z,100587.53
2022-11-24T04:30:38.707Z,100578.03
2022-11-24T04:33:10.944Z,100589.28
2022-11-24T04:35:42.964Z,100585.81
2022-11-24T04:39:25.984Z,100589.31
2022-11-24T04:41:06.945Z,100593.63
2022-11-24T04:43:40.785Z,100597.97
2022-11-24T04:46:13.162Z,100597.06
2022-11-24T04:48:45.238Z,100598.78
2022-11-24T04:51:17.249Z,100592.75
2022-11-24T04:53:49.625Z,100598.78
2022-11-24T04:56:21.794Z,100610.09
2022-11-24T04:58:53.823Z,100612.66
2022-11-24T05:01:26.267Z,100610.09
2022-11-24T05:03:58.908Z,100604.84
2022-11-24T05:06:31.094Z,100616.09
2022-11-24T05:09:03.766Z,100610.94
2022-11-24T05:11:35.898Z,100615.28
2022-11-24T05:14:07.975Z,100620.47
2022-11-24T05:16:40.063Z,100619.56
2022-11-24T05:19:12.288Z,100623.03
2022-11-24T05:21:44.279Z,100628.28
2022-11-24T05:24:16.286Z,100631.78
2022-11-24T05:26:48.215Z,100642.19
2022-11-24T05:29:20.144Z,100637.88
2022-11-24T05:31:52.235Z,100646.56
2022-11-24T05:34:24.630Z,100644.88
2022-11-24T05:37:03.044Z,100645.78
2022-11-24T05:39:36.327Z,100643.19
2022-11-24T05:42:27.438Z,100657.03
2022-11-24T05:44:59.818Z,100655.25
2022-11-24T05:47:32.468Z,100657.88
2022-11-24T05:50:05.061Z,100659.59
2022-11-24T05:52:37.219Z,100669.13
2022-11-24T05:55:11.656Z,100671.75
2022-11-24T05:57:43.673Z,100668.28
2022-11-24T06:00:18.258Z,100670.84
2022-11-24T06:02:50.279Z,100667.38
2022-11-24T06:05:22.446Z,100676.84
2022-11-24T06:07:55.295Z,100674.25
2022-11-24T06:10:28.361Z,100679.44
2022-11-24T06:13:06.285Z,100677.66
2022-11-24T06:15:38.679Z,100678.53
2022-11-24T06:18:10.728Z,100678.50
2022-11-24T06:20:53.086Z,100683.69
2022-11-24T06:23:35.304Z,100688.03
2022-11-24T06:26:07.529Z,100688.06
2022-11-24T06:28:39.588Z,100689.78
2022-11-24T06:31:11.823Z,100687.19
2022-11-24T06:33:43.787Z,100688.91
2022-11-24T06:36:15.884Z,100689.75
2022-11-24T06:38:47.916Z,100691.47
2022-11-24T06:41:20.376Z,100696.63
2022-11-24T06:43:52.425Z,100707.00
2022-11-24T06:46:24.810Z,100702.66
2022-11-24T06:48:56.863Z,100707.84
2022-11-24T06:51:29.126Z,100708.72
2022-11-24T06:54:01.839Z,100715.63
2022-11-24T06:56:34.092Z,100716.44
2022-11-24T06:59:06.127Z,100719.88
2022-11-24T07:01:38.140Z,100722.53
2022-11-24T07:04:11.452Z,100732.00
2022-11-24T07:06:44.070Z,100724.25
2022-11-24T07:09:16.162Z,100729.41
2022-11-24T07:11:48.216Z,100735.53
2022-11-24T07:14:20.205Z,100739.03
2022-11-24T07:16:52.284Z,100748.59
2022-11-24T07:19:25.225Z,100753.75
2022-11-24T07:21:57.609Z,100755.53
2022-11-24T07:24:29.597Z,100764.19
2022-11-24T07:27:01.529Z,100766.81
2022-11-24T07:29:33.730Z,100774.69
2022-11-24T07:32:06.047Z,100779.91
2022-11-24T07:34:38.050Z,100784.28
2022-11-24T07:37:10.058Z,100792.16
2022-11-24T07:39:42.042Z,100793.03
2022-11-24T07:42:13.972Z,100796.56
2022-11-24T07:44:45.999Z,100803.41
2022-11-24T07:47:17.925Z,100806.00
2022-11-24T07:49:50.067Z,100808.69
2022-11-24T07:52:22.101Z,100811.41
2022-11-24T07:54:54.193Z,100818.38
2022-11-24T07:57:26.438Z,100814.91
2022-11-24T07:59:58.417Z,100817.53
2022-11-24T08:02:30.436Z,100827.97
2022-11-24T08:05:02.492Z,100828.81
2022-11-24T08:07:34.611Z,100839.25
2022-11-24T08:10:07.386Z,100835.84
2022-11-24T08:12:39.475Z,100843.63
2022-11-24T08:15:11.694Z,100842.75
2022-11-24T08:17:43.742Z,100848.81
2022-11-24T08:20:15.898Z,100846.25
2022-11-24T08:22:47.963Z,100845.38
2022-11-24T08:25:20.027Z,100841.94
2022-11-24T08:27:51.949Z,100849.75
2022-11-24T08:30:24.148Z,100848.88
2022-11-24T08:32:59.334Z,100853.22
2022-11-24T08:35:31.303Z,100852.38
2022-11-24T08:38:04.767Z,100859.34
2022-11-24T08:40:36.959Z,100856.78
2022-11-24T08:43:09.000Z,100865.47
2022-11-24T08:45:41.816Z,100862.91
2022-11-24T08:48:14.054Z,100865.53
2022-11-24T08:50:46.118Z,100867.25
2022-11-24T08:53:18.957Z,100868.16
2022-11-24T08:55:51.152Z,100885.59
2022-11-24T08:58:23.122Z,100875.28
2022-11-24T09:00:55.636Z,100884.91
2022-11-24T09:03:27.969Z,100885.91
2022-11-24T09:06:00.205Z,100886.03
2022-11-24T09:08:33.139Z,100889.53
2022-11-24T09:11:14.247Z,100892.16
2022-11-24T09:13:46.257Z,100888.69
2022-11-24T09:16:25.962Z,100889.53
2022-11-24T09:19:04.879Z,100893.88
2022-11-24T09:21:39.068Z,100894.81
2022-11-24T09:24:11.426Z,100901.78
2022-11-24T09:26:47.692Z,100895.72
2022-11-24T09:29:20.021Z,100900.13
2022-11-24T09:31:51.989Z,100896.75
2022-11-24T09:34:24.055Z,100903.75
2022-11-24T09:36:56.025Z,100902.88
2022-11-24T09:39:28.052Z,100906.38
2022-11-24T09:42:06.614Z,100905.53
2022-11-24T09:44:56.468Z,100907.28
2022-11-24T09:48:01.567Z,100905.53
2022-11-24T09:50:40.020Z,100909.88
2022-11-24T09:53:56.662Z,100915.09
2022-11-24T09:56:33.670Z,100911.63
2022-11-24T09:59:15.671Z,100909.88
2022-11-24T10:01:49.761Z,100915.06
2022-11-24T10:04:35.510Z,100915.97
2022-11-24T10:07:23.938Z,100918.59
2022-11-24T10:10:02.474Z,100921.19
2022-11-24T10:12:56.055Z,100929.03
2022-11-24T10:15:54.661Z,100931.63
2022-11-24T10:19:03.495Z,100934.25
2022-11-24T10:22:08.643Z,100928.16
2022-11-24T10:25:18.246Z,100929.03
2022-11-24T10:28:02.472Z,100933.31
2022-11-24T10:30:34.494Z,100937.72
2022-11-24T10:33:15.839Z,100944.69
2022-11-24T10:36:04.588Z,100943.81
2022-11-24T10:38:51.004Z,100937.72
2022-11-24T10:41:36.833Z,100942.94
2022-11-24T10:44:14.256Z,100942.06
2022-11-24T10:46:46.534Z,100934.25
2022-11-24T10:49:32.835Z,100941.19
2022-11-24T10:52:15.295Z,100942.94
2022-11-24T10:55:13.811Z,100948.16
2022-11-24T10:57:46.000Z,100947.28
2022-11-24T11:00:20.957Z,100942.94
2022-11-24T11:03:21.899Z,100949.91
2022-11-24T11:06:14.762Z,100954.25
2022-11-24T11:08:46.819Z,100957.75
2022-11-24T11:11:30.766Z,100966.41
2022-11-24T11:14:13.151Z,100952.50
2022-11-24T11:16:54.400Z,100966.44
2022-11-24T11:19:49.749Z,100968.19
2022-11-24T11:22:26.092Z,100980.38
2022-11-24T11:25:10.030Z,100973.41
2022-11-24T11:27:42.815Z,100975.13
2022-11-24T11:36:20.463Z,100984.69
2022-11-24T11:38:53.173Z,100991.63
2022-11-24T11:41:33.261Z,100997.69
2022-11-24T11:44:38.523Z,101007.31
2022-11-24T11:47:42.693Z,101000.41
2022-11-24T11:50:17.845Z,101011.69
2022-11-24T11:53:26.419Z,101007.25
2022-11-24T11:56:33.528Z,101015.09
2022-11-24T11:59:49.939Z,101012.47
2022-11-24T12:03:15.498Z,101014.22
2022-11-24T12:06:19.456Z,101028.06
2022-11-24T12:09:21.337Z,101022.72
2022-11-24T12:12:27.232Z,101035.00
2022-11-24T12:15:13.650Z,101035.94
2022-11-24T12:18:03.073Z,101037.72
2022-11-24T12:21:29.806Z,101049.06
2022-11-24T12:24:32.125Z,101049.13
2022-11-24T12:27:42.653Z,101045.63
2022-11-24T12:30:16.579Z,101048.28
2022-11-24T12:33:29.588Z,101049.13
2022-11-24T12:37:12.458Z,101056.97
2022-11-24T12:40:13.339Z,101056.94
2022-11-24T12:43:06.229Z,101058.69
2022-11-24T12:45:56.497Z,101061.31
2022-11-24T12:48:48.036Z,101062.19
2022-11-24T12:51:28.509Z,101064.81
2022-11-24T12:54:05.388Z,101065.66
2022-11-24T12:57:07.045Z,101065.63
2022-11-24T13:00:09.461Z,101060.34
2022-11-24T13:03:14.350Z,101071.66
2022-11-24T13:06:11.039Z,101068.19
2022-11-24T13:08:43.620Z,101083.06
2022-11-24T13:11:41.696Z,101091.78
2022-11-24T13:14:49.807Z,101099.66
2022-11-24T13:17:47.470Z,101097.03
2022-11-24T13:20:26.256Z,101105.75
2022-11-24T13:23:04.340Z,101097.03
2022-11-24T13:25:36.793Z,101103.09
2022-11-24T13:29:17.962Z,101108.34
2022-11-24T13:32:19.328Z,101104.91
2022-11-24T13:34:55.091Z,101110.13
2022-11-24T13:37:34.985Z,101108.38
2022-11-24T13:40:14.279Z,101117.09
2022-11-24T13:42:57.894Z,101117.94
2022-11-24T13:45:41.990Z,101115.34
2022-11-24T13:48:34.277Z,101117.94
2022-11-24T13:51:08.963Z,101117.09
2022-11-24T13:53:40.857Z,101111.88
2022-11-24T13:56:12.887Z,101112.72
2022-11-24T13:58:58.444Z,101112.75
2022-11-24T14:01:36.915Z,101116.22
2022-11-24T14:04:30.646Z,101118.84
2022-11-24T14:09:59.081Z,101116.22
2022-11-24T14:12:33.818Z,101130.97
2022-11-24T14:15:27.189Z,101131.84
2022-11-24T14:17:59.179Z,101140.56
2022-11-24T14:20:31.100Z,101150.19
2022-11-24T14:23:03.174Z,101144.91
2022-11-24T14:25:36.022Z,101146.66
2022-11-24T14:28:26.546Z,101152.75
2022-11-24T14:31:18.257Z,101156.16
2022-11-24T14:33:51.400Z,101160.53
2022-11-24T14:36:23.456Z,101158.75
2022-11-24T14:38:55.513Z,101163.09
2022-11-24T14:41:28.489Z,101172.69
2022-11-24T14:44:21.503Z,101170.06
2022-11-24T14:47:31.370Z,101176.16
2022-11-24T14:50:18.180Z,101168.31
2022-11-24T14:52:59.968Z,101172.66
2022-11-24T14:55:35.412Z,101179.63
2022-11-24T14:58:40.537Z,101164.81
2022-11-24T15:01:28.742Z,101162.19
2022-11-24T15:05:01.105Z,101177.81
2022-11-24T15:07:26.621Z,101173.38
2022-11-24T15:10:06.026Z,101175.13
2022-11-24T15:12:41.815Z,101180.34
2022-11-24T15:15:20.593Z,101172.47
2022-11-24T15:18:01.099Z,101178.56
2022-11-24T15:20:42.404Z,101181.97
2022-11-24T15:23:23.793Z,101185.41
2022-11-24T15:25:58.177Z,101188.00
2022-11-24T15:28:31.472Z,101190.59
2022-11-24T15:31:09.185Z,101194.91
2022-11-24T15:33:42.354Z,101193.16
2022-11-24T15:36:16.760Z,101189.66
2022-11-24T15:38:48.770Z,101193.09
2022-11-24T15:41:23.225Z,101193.94
2022-11-24T15:44:01.843Z,101196.53
2022-11-24T15:46:38.289Z,101197.38
2022-11-24T15:49:10.497Z,101208.59
2022-11-24T15:51:45.279Z,101209.44
2022-11-24T15:54:19.061Z,101212.00
2022-11-24T15:56:51.186Z,101211.94
2022-11-24T15:59:23.306Z,101215.41
2022-11-24T16:01:55.378Z,101220.59
2022-11-24T16:04:28.088Z,101219.69
2022-11-24T16:07:00.785Z,101216.16
2022-11-24T16:09:32.754Z,101222.22
2022-11-24T16:12:05.240Z,101225.66
2022-11-24T16:14:37.583Z,101226.44
2022-11-24T16:17:09.815Z,101235.91
2022-11-24T16:19:42.286Z,101242.84
2022-11-24T16:22:14.354Z,101249.81
2022-11-24T16:24:46.340Z,101241.94
2022-11-24T16:27:18.319Z,101257.50
2022-11-24T16:29:50.341Z,101258.34
2022-11-24T16:32:22.333Z,101254.88
2022-11-24T16:34:54.281Z,101260.09
2022-11-24T16:37:26.392Z,101270.47
2022-11-24T16:39:58.643Z,101269.56
2022-11-24T16:42:31.428Z,101273.00
2022-11-24T16:45:04.214Z,101274.59
2022-11-24T16:47:40.533Z,101289.34
2022-11-24T16:50:12.811Z,101283.28
2022-11-24T16:52:44.870Z,101284.09
2022-11-24T16:55:16.949Z,101283.28
2022-11-24T16:57:49.274Z,101290.31
2022-11-24T17:00:21.466Z,101280.88
2022-11-24T17:02:53.677Z,101286.09
2022-11-24T17:05:25.817Z,101285.19
2022-11-24T17:07:58.780Z,101287.78
2022-11-24T17:10:31.134Z,101293.75
2022-11-24T17:13:03.130Z,101292.84
2022-11-24T17:15:44.506Z,101293.69
2022-11-24T17:18:24.529Z,101287.59
2022-11-24T17:21:07.890Z,101291.03
2022-11-24T17:23:42.053Z,101290.94
2022-11-24T17:26:17.004Z,101296.16
2022-11-24T17:28:49.034Z,101292.63
2022-11-24T17:31:26.042Z,101291.75
2022-11-24T17:34:00.364Z,101297.78
2022-11-24T17:36:34.139Z,101300.31
2022-11-24T17:39:07.536Z,101300.25
2022-11-24T17:41:39.678Z,101297.63
2022-11-24T17:44:12.763Z,101299.31
2022-11-24T17:46:44.848Z,101295.81
2022-11-24T17:49:16.952Z,101306.19
2022-11-24T17:51:50.628Z,101301.81
2022-11-24T17:57:14.645Z,101298.22
2022-11-24T17:59:46.729Z,101298.25
2022-11-24T18:02:19.592Z,101298.13
2022-11-24T18:04:51.692Z,101297.16
2022-11-24T18:07:23.724Z,101297.22
2022-11-24T18:09:55.848Z,101297.22
2022-11-24T18:12:27.984Z,101302.41
2022-11-24T18:15:00.237Z,101306.75
2022-11-24T18:17:32.228Z,101310.19
2022-11-24T18:20:04.657Z,101304.94
2022-11-24T18:23:04.141Z,101304.00
2022-11-24T18:25:29.767Z,101307.47
2022-11-24T18:28:01.747Z,101302.25
2022-11-24T18:30:33.735Z,101309.97
2022-11-24T18:33:05.778Z,101306.47
2022-11-24T18:35:39.725Z,101305.56
2022-11-24T18:38:11.768Z,101307.28
2022-11-24T18:40:43.810Z,101300.34
2022-11-24T18:43:15.886Z,101307.25
2022-11-24T18:45:47.947Z,101307.25
2022-11-24T18:48:22.117Z,101307.22
2022-11-24T18:50:56.752Z,101303.69
2022-11-24T18:53:29.482Z,101302.81
2022-11-24T18:56:05.454Z,101304.47
2022-11-24T18:58:37.669Z,101311.38
2022-11-24T19:01:09.640Z,101306.13
2022-11-24T19:03:49.241Z,101318.28
2022-11-24T19:06:36.320Z,101302.69
2022-11-24T19:09:18.737Z,101301.72
2022-11-24T19:11:50.726Z,101306.91
2022-11-24T19:14:22.702Z,101312.13
2022-11-24T19:16:55.551Z,101302.41
2022-11-24T19:19:29.052Z,101302.53
2022-11-24T19:22:01.608Z,101305.06
2022-11-24T19:24:33.803Z,101309.31
2022-11-24T19:27:06.084Z,101304.06
2022-11-24T19:29:42.821Z,101311.06
2022-11-24T19:32:17.017Z,101315.38
2022-11-24T19:34:49.029Z,101315.19
2022-11-24T19:37:21.571Z,101316.94
2022-11-24T19:39:53.730Z,101317.78
2022-11-24T19:42:25.898Z,101315.06
2022-11-24T19:44:57.935Z,101319.34
2022-11-24T19:47:29.998Z,101322.84
2022-11-24T19:50:06.022Z,101326.34
2022-11-24T19:52:41.057Z,101324.47
2022-11-24T19:55:13.115Z,101326.19
2022-11-24T19:57:45.221Z,101340.88
2022-11-24T20:00:18.060Z,101345.22
2022-11-24T20:02:50.711Z,101350.38
2022-11-24T20:05:22.746Z,101347.69
2022-11-24T20:07:54.914Z,101353.69
2022-11-24T20:10:26.993Z,101359.75
2022-11-24T20:12:58.946Z,101356.25
2022-11-24T20:15:30.927Z,101356.16
2022-11-24T20:18:03.007Z,101360.53
2022-11-24T20:20:34.970Z,101354.44
2022-11-24T20:23:06.949Z,101361.41
2022-11-24T20:25:39.091Z,101363.06
2022-11-24T20:28:11.745Z,101365.59
2022-11-24T20:30:43.762Z,101359.47
2022-11-24T20:33:15.739Z,101370.72
2022-11-24T20:35:47.728Z,101368.06
2022-11-24T20:38:22.196Z,101368.84
2022-11-24T20:41:09.870Z,101363.66
2022-11-24T20:43:44.021Z,101374.03
2022-11-24T20:46:20.732Z,101369.72
2022-11-24T20:48:54.758Z,101370.34
2022-11-24T20:51:34.013Z,101375.56
2022-11-24T20:54:09.318Z,101375.69
2022-11-24T20:56:43.544Z,101374.81
2022-11-24T20:59:22.395Z,101380.09
2022-11-24T21:01:59.249Z,101377.34
2022-11-24T21:04:31.469Z,101378.34
2022-11-24T21:07:03.927Z,101381.88
2022-11-24T21:09:35.951Z,101386.19
2022-11-24T21:12:08.041Z,101382.78
2022-11-24T21:14:40.691Z,101380.13
2022-11-24T21:17:14.285Z,101380.09
2022-11-24T21:19:46.724Z,101379.31
2022-11-24T21:22:18.775Z,101384.44
2022-11-24T21:24:50.743Z,101388.53
2022-11-24T21:27:22.747Z,101380.00
2022-11-24T21:29:54.737Z,101384.34
2022-11-24T21:32:28.152Z,101380.97
2022-11-24T21:35:00.247Z,101377.47
2022-11-24T21:37:32.311Z,101376.56
2022-11-24T21:40:05.228Z,101385.13
2022-11-24T21:42:37.255Z,101378.22
2022-11-24T21:45:11.671Z,101380.78
2022-11-24T21:47:46.476Z,101377.16
2022-11-24T21:50:18.531Z,101377.91
2022-11-24T21:52:50.699Z,101381.41
2022-11-24T21:55:22.707Z,101376.16
2022-11-24T21:57:54.900Z,101376.19
2022-11-24T22:00:26.918Z,101377.09
2022-11-24T22:02:58.862Z,101378.78
2022-11-24T22:05:31.082Z,101375.31
2022-11-24T22:08:04.648Z,101377.00
2022-11-24T22:10:36.736Z,101365.75
2022-11-24T22:13:08.898Z,101372.56
2022-11-24T22:15:41.152Z,101381.25
2022-11-24T22:18:13.347Z,101371.56
2022-11-24T22:20:55.714Z,101374.22
2022-11-24T22:23:27.758Z,101377.69
2022-11-24T22:26:12.433Z,101377.69
2022-11-24T22:28:45.553Z,101375.09
2022-11-24T22:31:23.224Z,101379.34
2022-11-24T22:33:57.376Z,101378.56
2022-11-24T22:36:30.551Z,101375.19
2022-11-24T22:39:06.057Z,101370.81
2022-11-24T22:41:38.366Z,101374.19
2022-11-24T22:44:10.401Z,101371.63
2022-11-24T22:46:42.594Z,101369.88
2022-11-24T22:49:14.753Z,101368.16
2022-11-24T22:51:46.868Z,101363.88
2022-11-24T22:54:18.981Z,101365.44
2022-11-24T22:56:51.139Z,101375.88
2022-11-24T22:59:23.330Z,101364.59
2022-11-24T23:01:55.688Z,101367.97
2022-11-24T23:04:27.773Z,101359.22
2022-11-24T23:06:59.832Z,101355.84
2022-11-24T23:09:31.995Z,101351.53
2022-11-24T23:12:04.246Z,101359.25
2022-11-24T23:14:36.521Z,101359.22
2022-11-24T23:17:08.829Z,101351.34
2022-11-24T23:19:41.253Z,101354.81
2022-11-24T23:22:13.277Z,101350.53
2022-11-24T23:24:45.297Z,101347.19
2022-11-24T23:27:17.653Z,101347.13
2022-11-24T23:29:49.780Z,101345.31
2022-11-24T23:32:21.965Z,101339.13
2022-11-24T23:34:53.996Z,101341.88
2022-11-24T23:37:39.252Z,101348.81
2022-11-24T23:40:18.321Z,101354.69
2022-11-24T23:42:50.620Z,101349.31
2022-11-24T23:45:23.233Z,101349.97
2022-11-24T23:47:55.422Z,101345.81
2022-11-24T23:50:27.555Z,101345.69
2022-11-24T23:52:59.812Z,101339.81
2022-11-24T23:55:31.842Z,101339.94
2022-11-24T23:58:05.346Z,101329.47
